Time;durP1;ratioP1;P1;durP2;ratioP2;P2;SDS_P1;SDS_P2;PMS_P1;PMS_P2;Temp;Humidity;BMP_temperature;BMP_pressure;BME280_temperature;BME280_humidity;BME280_pressure;Samples;Min_cycle;Max_cycle;Signal;HPM_P1;HPM_P2
2022/04/04 00:02:24;;;;;;;14.20;6.45;;;;;;;3.65;86.98;102017.38;5075795;28;20049;-75
2022/04/04 00:04:52;;;;;;;14.10;6.68;;;;;;;3.71;87.30;102008.25;5075827;28;20532;-77
2022/04/04 00:07:23;;;;;;;12.15;6.75;;;;;;;3.71;87.61;101994.38;5076164;28;20054;-75
2022/04/04 00:09:55;;;;;;;13.63;6.47;;;;;;;3.70;87.63;102000.38;5075956;28;20450;-75
2022/04/04 00:12:25;;;;;;;11.68;5.57;;;;;;;3.75;87.40;101985.97;5075610;28;20063;-76
2022/04/04 00:14:56;;;;;;;10.70;6.22;;;;;;;3.79;87.71;101988.84;5076345;28;20055;-76
2022/04/04 00:17:26;;;;;;;9.90;5.47;;;;;;;3.81;87.64;101979.44;5076134;28;20049;-75
2022/04/04 00:19:57;;;;;;;14.30;5.88;;;;;;;3.84;87.44;101977.03;5076527;28;20087;-75
2022/04/04 00:22:26;;;;;;;9.85;5.43;;;;;;;3.86;87.17;101971.94;5075862;28;20414;-75
2022/04/04 00:24:56;;;;;;;11.68;5.50;;;;;;;3.90;86.95;101969.59;5059024;28;20068;-75
2022/04/04 00:27:24;;;;;;;12.30;5.70;;;;;;;3.83;87.44;101957.06;5076490;28;20044;-75
2022/04/04 00:29:52;;;;;;;8.20;4.53;;;;;;;3.99;87.13;101958.84;5076329;28;20068;-75
2022/04/04 00:32:24;;;;;;;11.95;5.85;;;;;;;3.94;87.30;101952.50;5076344;28;20045;-76
2022/04/04 00:34:55;;;;;;;13.60;5.25;;;;;;;4.00;87.41;101960.66;5076301;28;20052;-76
2022/04/04 00:37:23;;;;;;;10.93;6.00;;;;;;;4.01;87.10;101949.47;5075938;28;20049;-75
2022/04/04 00:39:52;;;;;;;9.63;5.93;;;;;;;4.03;87.30;101947.84;5076143;28;20049;-74
2022/04/04 00:42:21;;;;;;;13.95;6.05;;;;;;;4.06;87.14;101935.03;5058697;28;20064;-75
2022/04/04 00:44:53;;;;;;;10.77;5.45;;;;;;;4.03;87.64;101940.06;5076056;28;20052;-74
2022/04/04 00:47:21;;;;;;;13.05;5.97;;;;;;;4.07;87.83;101931.63;5076348;28;20055;-74
2022/04/04 00:49:56;;;;;;;11.98;6.35;;;;;;;4.01;87.67;101933.00;5075744;28;20049;-74
2022/04/04 00:52:24;;;;;;;11.15;5.80;;;;;;;3.98;88.33;101928.50;5075596;28;20044;-74
2022/04/04 00:54:52;;;;;;;12.73;5.80;;;;;;;4.00;88.54;101916.53;5075653;28;20044;-76
2022/04/04 00:57:20;;;;;;;13.30;6.22;;;;;;;4.04;88.60;101913.28;5075937;28;20071;-74
2022/04/04 00:59:52;;;;;;;13.75;6.57;;;;;;;4.00;88.74;101906.13;5075639;28;20135;-74
2022/04/04 01:02:22;;;;;;;18.17;6.65;;;;;;;4.03;88.63;101898.53;5075576;28;20067;-75
2022/04/04 01:04:58;;;;;;;11.10;6.30;;;;;;;4.06;88.69;101903.00;5075649;28;20063;-75
2022/04/04 01:07:26;;;;;;;13.65;6.63;;;;;;;4.02;89.19;101901.03;5075569;28;20044;-74
2022/04/04 01:09:57;;;;;;;14.10;6.15;;;;;;;4.08;88.84;101888.41;5075482;28;20087;-76
2022/04/04 01:12:26;;;;;;;11.77;6.45;;;;;;;4.04;89.27;101886.44;5075488;28;20427;-77
2022/04/04 01:14:57;;;;;;;12.80;6.82;;;;;;;4.00;89.04;101875.00;5076844;28;20067;-76
2022/04/04 01:17:27;;;;;;;14.95;6.53;;;;;;;4.06;89.32;101877.94;5076395;28;20045;-75
2022/04/04 01:19:56;;;;;;;16.65;7.30;;;;;;;4.15;88.81;101868.06;5076528;28;20054;-74
2022/04/04 01:22:25;;;;;;;16.83;7.60;;;;;;;4.09;88.66;101867.72;5075636;28;20040;-74
2022/04/04 01:24:59;;;;;;;13.65;6.85;;;;;;;4.18;88.62;101859.50;5075545;28;20101;-75
2022/04/04 01:27:27;;;;;;;16.17;7.60;;;;;;;4.14;88.58;101849.78;5075975;28;20060;-76
2022/04/04 01:29:55;;;;;;;14.38;7.88;;;;;;;4.21;87.94;101850.19;5075353;28;20048;-76
2022/04/04 01:32:25;;;;;;;16.40;8.52;;;;;;;4.18;87.82;101852.63;5075283;28;20052;-75
2022/04/04 01:34:54;;;;;;;16.73;8.40;;;;;;;4.23;87.75;101834.69;5074838;28;20098;-76
2022/04/04 01:37:23;;;;;;;15.20;9.10;;;;;;;4.26;87.82;101840.94;5075301;28;20083;-74
2022/04/04 01:39:56;;;;;;;20.60;10.18;;;;;;;4.16;87.75;101822.22;5075385;28;20087;-75
2022/04/04 01:42:26;;;;;;;17.90;9.55;;;;;;;4.18;87.66;101829.25;5075507;28;20048;-75
2022/04/04 01:44:58;;;;;;;19.65;10.52;;;;;;;4.21;87.65;101823.31;5074816;28;20066;-75
2022/04/04 01:47:26;;;;;;;22.25;11.52;;;;;;;4.20;87.76;101812.03;5075257;28;20055;-75
2022/04/04 01:49:55;;;;;;;19.27;10.48;;;;;;;4.19;87.56;101817.16;5075125;28;20040;-74
2022/04/04 01:52:23;;;;;;;23.35;10.73;;;;;;;4.16;87.08;101804.91;5075703;28;20085;-76
2022/04/04 01:54:53;;;;;;;18.55;9.95;;;;;;;4.19;87.11;101796.38;5075482;28;20052;-74
2022/04/04 01:57:26;;;;;;;17.55;9.60;;;;;;;4.25;86.94;101792.41;5075807;28;20051;-74
2022/04/04 01:59:56;;;;;;;18.40;10.30;;;;;;;4.26;86.70;101788.13;5075986;28;20469;-75
2022/04/04 02:02:25;;;;;;;20.38;10.18;;;;;;;4.23;86.43;101778.47;5076401;28;20480;-75
2022/04/04 02:05:00;;;;;;;15.50;10.35;;;;;;;4.32;86.19;101765.06;5076743;28;20136;-75
2022/04/04 02:07:28;;;;;;;23.48;10.13;;;;;;;4.36;85.61;101774.81;5077464;28;20056;-74
2022/04/04 02:10:01;;;;;;;19.67;10.07;;;;;;;4.36;85.36;101764.44;5079097;28;20044;-76
2022/04/04 02:12:34;;;;;;;21.35;11.05;;;;;;;4.36;85.51;101763.53;5079579;28;20044;-73
2022/04/04 02:15:07;;;;;;;17.95;10.93;;;;;;;4.40;85.30;101762.88;5080135;28;20044;-74
2022/04/04 02:17:35;;;;;;;16.98;9.40;;;;;;;4.36;85.64;101748.84;5080107;28;20075;-74
2022/04/04 02:20:07;;;;;;;17.80;10.93;;;;;;;4.36;85.89;101754.03;5080677;28;20453;-75
2022/04/04 02:22:36;;;;;;;26.88;10.80;;;;;;;4.36;86.06;101742.75;5082825;28;20072;-75
2022/04/04 02:25:08;;;;;;;21.30;10.90;;;;;;;4.43;86.01;101737.06;5081528;28;20048;-74
2022/04/04 02:27:38;;;;;;;22.35;11.00;;;;;;;4.42;86.13;101735.28;5076985;28;20504;-74
2022/04/04 02:30:08;;;;;;;24.95;11.55;;;;;;;4.41;86.16;101726.59;5076527;28;20455;-74
2022/04/04 02:32:37;;;;;;;23.83;11.32;;;;;;;4.42;86.16;101718.00;5076322;28;20044;-74
2022/04/04 02:35:07;;;;;;;28.25;12.57;;;;;;;4.48;86.22;101720.03;5076756;28;20044;-74
2022/04/04 02:37:37;;;;;;;19.75;10.90;;;;;;;4.49;86.28;101708.81;5081500;28;20048;-75
2022/04/04 02:40:06;;;;;;;23.33;12.18;;;;;;;4.47;86.02;101700.94;5081564;28;20064;-74
2022/04/04 02:42:35;;;;;;;22.45;10.65;;;;;;;4.46;86.07;101693.97;5080560;28;20080;-75
2022/04/04 02:45:08;;;;;;;23.60;10.93;;;;;;;4.47;85.89;101687.06;5080879;28;20083;-75
2022/04/04 02:47:38;;;;;;;21.10;11.10;;;;;;;4.45;85.84;101688.69;5081028;28;20421;-76
2022/04/04 02:50:08;;;;;;;26.88;11.35;;;;;;;4.48;85.49;101670.66;5080756;28;20102;-75
2022/04/04 02:52:37;;;;;;;19.80;10.40;;;;;;;4.46;85.85;101669.69;5080763;28;20433;-75
2022/04/04 02:57:52;;;;;;;21.25;11.88;;;;;;;4.46;85.99;101661.91;5079148;28;20429;-75
2022/04/04 03:00:25;;;;;;;21.60;10.43;;;;;;;4.57;85.46;101646.03;5080898;28;20052;-76
2022/04/04 03:02:55;;;;;;;29.95;12.23;;;;;;;4.59;85.61;101641.81;5080572;28;20132;-75
2022/04/04 03:05:24;;;;;;;22.08;11.43;;;;;;;4.61;85.71;101634.09;5080294;28;20471;-75
2022/04/04 03:07:53;;;;;;;20.23;10.98;;;;;;;4.65;85.43;101628.25;5080347;28;20109;-75
2022/04/04 03:10:23;;;;;;;27.05;12.25;;;;;;;4.67;85.49;101626.63;5080339;28;20394;-75
2022/04/04 03:12:59;;;;;;;22.60;11.50;;;;;;;4.66;85.40;101622.22;5080640;28;20090;-76
2022/04/04 03:15:29;;;;;;;23.05;11.43;;;;;;;4.64;85.89;101608.28;5080329;28;20048;-76
2022/04/04 03:17:58;;;;;;;22.88;12.18;;;;;;;4.72;85.13;101604.34;5080284;28;20045;-75
2022/04/04 03:20:27;;;;;;;21.63;9.88;;;;;;;4.80;85.26;101597.81;5080715;28;20370;-75
2022/04/04 03:22:57;;;;;;;24.92;12.60;;;;;;;4.75;84.97;101596.69;5082765;28;20052;-75
2022/04/04 03:25:26;;;;;;;28.45;12.82;;;;;;;4.79;84.73;101587.34;5082158;28;20086;-75
2022/04/04 03:27:55;;;;;;;22.52;11.57;;;;;;;4.76;84.90;101582.00;5081949;28;20523;-75
2022/04/04 03:30:25;;;;;;;23.55;11.25;;;;;;;4.77;85.15;101584.66;5081592;28;20135;-75
2022/04/04 03:32:57;;;;;;;24.42;10.65;;;;;;;4.78;84.70;101575.16;5080202;28;20088;-76
2022/04/04 03:35:28;;;;;;;25.00;12.25;;;;;;;4.79;84.61;101569.16;5080085;28;20139;-75
2022/04/04 03:37:59;;;;;;;20.75;11.35;;;;;;;4.76;84.96;101569.91;5080138;28;20052;-75
2022/04/04 03:40:28;;;;;;;23.45;12.57;;;;;;;4.78;85.03;101560.47;5080163;28;20056;-76
2022/04/04 03:42:58;;;;;;;27.73;11.93;;;;;;;4.74;85.13;101558.53;5079927;28;20514;-75
2022/04/04 03:45:29;;;;;;;20.85;11.95;;;;;;;4.73;84.80;101543.75;5080253;28;20045;-76
2022/04/04 03:47:59;;;;;;;23.13;12.20;;;;;;;4.72;84.77;101549.78;5075858;28;20052;-75
2022/04/04 03:50:29;;;;;;;21.58;10.32;;;;;;;4.75;84.89;101533.44;5076372;28;20437;-75
2022/04/04 03:52:58;;;;;;;23.92;11.57;;;;;;;4.76;84.51;101523.13;5076759;28;20076;-76
2022/04/04 03:55:29;;;;;;;21.83;11.13;;;;;;;4.77;84.90;101524.00;5076240;28;20481;-74
2022/04/04 03:58:01;;;;;;;22.15;11.70;;;;;;;4.76;84.58;101519.63;5076934;28;20056;-75
2022/04/04 04:00:33;;;;;;;28.42;10.82;;;;;;;4.76;84.15;101517.91;5076548;28;20073;-76
2022/04/04 04:03:03;;;;;;;18.35;11.20;;;;;;;4.71;84.73;101509.00;5059645;28;20070;-76
2022/04/04 04:05:32;;;;;;;19.88;10.82;;;;;;;4.77;84.05;101511.91;5076177;28;20044;-75
2022/04/04 04:08:01;;;;;;;18.63;10.55;;;;;;;4.80;83.83;101508.56;5076762;28;20395;-76
2022/04/04 04:10:32;;;;;;;25.40;12.10;;;;;;;4.78;83.71;101502.41;5076273;28;20048;-75
2022/04/04 04:13:05;;;;;;;25.40;10.98;;;;;;;4.77;83.35;101487.63;5076327;28;20040;-75
2022/04/04 04:15:34;;;;;;;23.08;11.43;;;;;;;4.78;83.49;101490.28;5076238;28;20063;-75
2022/04/04 04:18:04;;;;;;;22.95;11.45;;;;;;;4.79;82.86;101481.69;5076436;28;20079;-75
2022/04/04 04:20:35;;;;;;;20.17;10.55;;;;;;;4.80;83.15;101486.06;5076715;28;20051;-75
2022/04/04 04:23:07;;;;;;;19.25;10.32;;;;;;;4.80;82.88;101483.47;5077305;28;20159;-75
2022/04/04 04:25:38;;;;;;;20.58;10.10;;;;;;;4.81;82.63;101473.97;5076816;28;20102;-76
2022/04/04 04:28:09;;;;;;;22.15;10.40;;;;;;;4.81;82.71;101460.97;5076992;28;20067;-76
2022/04/04 04:30:39;;;;;;;23.25;10.95;;;;;;;4.83;82.38;101459.31;5076095;28;20048;-75
2022/04/04 04:33:09;;;;;;;23.40;9.35;;;;;;;4.83;82.52;101446.34;5076563;28;20487;-76
2022/04/04 04:35:40;;;;;;;23.17;10.25;;;;;;;4.87;81.43;101450.84;5076560;28;20441;-75
2022/04/04 04:38:11;;;;;;;23.60;9.88;;;;;;;4.90;81.46;101449.28;5076557;28;20074;-75
2022/04/04 04:40:39;;;;;;;21.13;9.90;;;;;;;4.90;81.09;101431.09;5076038;28;20044;-76
2022/04/04 04:43:10;;;;;;;20.85;10.38;;;;;;;4.93;80.46;101426.03;5076726;28;20068;-75
2022/04/04 04:45:39;;;;;;;21.02;10.82;;;;;;;4.99;80.11;101420.22;5076612;28;20510;-75
2022/04/04 04:48:12;;;;;;;24.48;10.13;;;;;;;4.93;80.30;101423.44;5076718;28;20045;-76
2022/04/04 04:50:41;;;;;;;22.45;10.50;;;;;;;4.99;80.46;101414.13;5076848;28;20435;-74
2022/04/04 04:53:10;;;;;;;18.23;8.90;;;;;;;5.00;79.75;101402.91;5076533;28;20075;-75
2022/04/04 04:55:39;;;;;;;22.00;9.48;;;;;;;5.05;79.28;101396.22;5076274;28;20117;-74
2022/04/04 04:58:08;;;;;;;19.40;9.38;;;;;;;5.07;79.54;101387.66;5076336;28;20124;-74
2022/04/04 05:00:37;;;;;;;16.73;9.30;;;;;;;5.09;79.01;101393.81;5058724;28;20049;-74
2022/04/04 05:05:59;;;;;;;20.80;9.95;;;;;;;5.13;79.09;101390.53;5076286;28;20053;-75
2022/04/04 05:08:30;;;;;;;18.92;8.93;;;;;;;5.20;78.80;101361.34;5076300;28;20445;-76
2022/04/04 05:10:59;;;;;;;22.45;10.20;;;;;;;5.15;79.21;101367.19;5076902;28;20139;-74
2022/04/04 05:13:27;;;;;;;18.85;10.05;;;;;;;5.20;78.53;101352.69;5077084;28;20048;-75
2022/04/04 05:15:56;;;;;;;21.15;9.63;;;;;;;5.20;78.30;101347.47;5077245;28;20068;-75
2022/04/04 05:18:24;;;;;;;20.15;10.57;;;;;;;5.20;78.71;101334.47;5078040;28;20048;-75
2022/04/04 05:20:53;;;;;;;24.58;12.05;;;;;;;5.16;78.70;101342.97;5079669;28;20082;-75
2022/04/04 05:23:24;;;;;;;18.05;10.45;;;;;;;5.16;78.63;101336.06;5080871;28;20139;-75
2022/04/04 05:25:53;;;;;;;23.27;11.77;;;;;;;5.22;78.33;101338.00;5079489;28;20044;-76
2022/04/04 05:28:24;;;;;;;20.00;12.07;;;;;;;5.22;78.23;101323.28;5081159;28;20051;-75
2022/04/04 05:30:52;;;;;;;25.05;12.00;;;;;;;5.24;78.44;101332.03;5081328;28;20051;-75
2022/04/04 05:33:21;;;;;;;21.80;11.88;;;;;;;5.26;78.06;101321.69;5080098;28;20044;-75
2022/04/04 05:35:53;;;;;;;23.33;12.30;;;;;;;5.28;78.59;101317.44;5063495;28;20068;-76
2022/04/04 05:38:23;;;;;;;25.90;12.52;;;;;;;5.26;78.66;101316.50;5079596;28;20052;-75
2022/04/04 05:40:53;;;;;;;22.60;10.60;;;;;;;5.30;78.82;101305.41;5077234;28;20059;-75
2022/04/04 05:43:22;;;;;;;19.27;10.50;;;;;;;5.30;78.88;101291.50;5075700;28;20084;-76
2022/04/04 05:45:57;;;;;;;21.50;11.13;;;;;;;5.29;79.26;101293.22;5075284;28;20049;-74
2022/04/04 05:48:27;;;;;;;28.25;14.45;;;;;;;5.32;80.04;101290.75;5075224;28;20056;-74
2022/04/04 05:50:57;;;;;;;20.13;10.77;;;;;;;5.30;80.55;101295.00;5075067;28;20080;-75
2022/04/04 05:53:25;;;;;;;25.48;12.13;;;;;;;5.27;81.68;101300.06;5074877;28;20040;-74
2022/04/04 05:55:54;;;;;;;24.77;11.57;;;;;;;5.20;82.92;101293.72;5074664;28;20053;-75
2022/04/04 05:58:24;;;;;;;24.83;12.20;;;;;;;5.15;84.42;101299.59;5074501;28;20102;-74
2022/04/04 06:00:53;;;;;;;23.13;12.55;;;;;;;5.13;85.51;101293.44;5074373;28;20056;-74
2022/04/04 06:03:21;;;;;;;28.27;13.43;;;;;;;5.13;85.94;101296.03;5074600;28;20049;-74
2022/04/04 06:05:54;;;;;;;25.17;13.55;;;;;;;5.10;86.31;101296.78;5074041;28;20044;-74
2022/04/04 06:08:23;;;;;;;26.25;11.50;;;;;;;5.03;87.61;101291.25;5074686;28;20094;-74
2022/04/04 06:10:52;;;;;;;22.55;11.38;;;;;;;4.94;88.30;101289.16;5073009;28;20044;-74
2022/04/04 06:13:21;;;;;;;22.35;12.77;;;;;;;4.93;88.76;101277.88;5075572;28;20063;-78
2022/04/04 06:15:53;;;;;;;22.88;12.82;;;;;;;4.90;89.04;101277.75;5074809;28;20049;-76
2022/04/04 06:18:21;;;;;;;26.70;13.73;;;;;;;4.83;89.89;101275.69;5076381;28;20069;-77
2022/04/04 06:20:52;;;;;;;27.05;11.15;;;;;;;4.87;90.42;101261.13;5074800;28;20055;-78
2022/04/04 06:23:24;;;;;;;25.37;13.67;;;;;;;4.81;90.50;101264.34;5075882;28;20044;-78
2022/04/04 06:25:52;;;;;;;25.88;14.13;;;;;;;4.80;90.94;101261.69;5075713;28;20109;-78
2022/04/04 06:28:22;;;;;;;26.60;13.82;;;;;;;4.82;91.59;101253.13;5075370;28;20083;-78
2022/04/04 06:30:54;;;;;;;24.70;12.60;;;;;;;4.80;91.08;101244.38;5075156;28;20070;-78
2022/04/04 06:33:22;;;;;;;25.90;13.32;;;;;;;4.79;92.19;101254.72;5075469;28;20044;-78
2022/04/04 06:35:51;;;;;;;21.73;11.85;;;;;;;4.87;90.85;101258.53;5075797;28;20080;-79
2022/04/04 06:38:23;;;;;;;25.33;13.20;;;;;;;4.92;91.44;101247.50;5075718;28;20481;-79
2022/04/04 06:40:52;;;;;;;27.67;11.93;;;;;;;4.95;90.92;101233.75;5076051;28;20070;-78
2022/04/04 06:43:21;;;;;;;24.80;11.40;;;;;;;5.01;90.53;101227.94;5075246;28;20072;-73
2022/04/04 06:45:55;;;;;;;25.38;10.60;;;;;;;5.05;90.80;101228.13;5073077;28;20048;-73
2022/04/04 06:48:24;;;;;;;20.58;10.13;;;;;;;5.06;90.54;101218.59;5055242;28;20059;-74
2022/04/04 06:50:52;;;;;;;19.05;10.30;;;;;;;5.06;90.45;101232.50;5073370;28;20099;-73
2022/04/04 06:53:24;;;;;;;25.73;10.63;;;;;;;5.09;91.04;101217.03;5073311;28;20045;-74
2022/04/04 06:55:52;;;;;;;23.27;10.43;;;;;;;5.13;90.95;101205.94;5055366;28;20062;-73
2022/04/04 06:58:24;;;;;;;20.65;10.18;;;;;;;5.14;89.54;101209.41;5072808;28;20090;-74
2022/04/04 07:00:57;;;;;;;17.45;8.90;;;;;;;5.22;87.96;101207.97;5073143;28;20056;-73
2022/04/04 07:03:26;;;;;;;16.00;7.82;;;;;;;5.18;88.15;101188.78;5072672;28;20052;-76
2022/04/04 07:05:57;;;;;;;17.25;8.32;;;;;;;5.19;87.43;101197.47;5074486;28;20103;-77
2022/04/04 07:08:29;;;;;;;19.05;8.88;;;;;;;5.20;87.44;101194.06;5073871;28;20124;-73
2022/04/04 07:10:57;;;;;;;21.55;8.20;;;;;;;5.21;87.08;101186.28;5073358;28;20053;-75
2022/04/04 07:13:25;;;;;;;17.52;7.03;;;;;;;5.21;87.75;101180.19;5072984;28;20067;-73
2022/04/04 07:15:53;;;;;;;18.98;7.78;;;;;;;5.17;88.53;101199.13;5073462;28;20048;-73
2022/04/04 07:18:21;;;;;;;11.98;5.80;;;;;;;5.10;89.19;101194.50;5074021;28;20040;-73
2022/04/04 07:21:06;;;;;;;16.15;7.93;;;;;;;5.07;89.89;101178.78;5074152;28;20055;-73
2022/04/04 07:23:37;;;;;;;18.27;8.23;;;;;;;4.87;91.66;101165.84;5079444;28;20055;-79
2022/04/04 07:26:06;;;;;;;20.60;8.23;;;;;;;4.83;92.19;101176.06;5078776;28;20052;-74
2022/04/04 07:28:35;;;;;;;21.38;9.00;;;;;;;4.80;93.46;101182.03;5076937;28;20052;-74
2022/04/04 07:31:07;;;;;;;19.23;8.80;;;;;;;4.85;94.21;101161.44;5076601;28;20058;-75
2022/04/04 07:33:35;;;;;;;21.88;7.82;;;;;;;4.78;95.21;101162.00;5076020;28;20076;-75
2022/04/04 07:36:06;;;;;;;14.98;7.32;;;;;;;4.78;95.41;101162.88;5076030;28;20056;-75
2022/04/04 07:38:35;;;;;;;19.67;7.60;;;;;;;4.76;94.22;101158.44;5058348;28;20044;-72
2022/04/04 07:41:07;;;;;;;15.93;7.57;;;;;;;4.67;94.67;101164.13;5075846;28;20429;-76
2022/04/04 07:43:36;;;;;;;14.35;7.10;;;;;;;4.60;95.02;101164.72;5078195;28;20122;-81
2022/04/04 07:46:05;;;;;;;13.43;7.57;;;;;;;4.55;95.43;101151.53;5078467;28;20127;-78
2022/04/04 07:48:33;;;;;;;17.58;8.10;;;;;;;4.62;95.14;101141.38;5078690;28;20467;-79
2022/04/04 07:51:01;;;;;;;18.80;8.63;;;;;;;4.64;95.24;101131.94;5078345;28;20139;-80
2022/04/04 07:53:32;;;;;;;16.67;8.95;;;;;;;4.65;95.51;101126.81;5077906;28;20082;-79
2022/04/04 07:56:06;;;;;;;28.27;9.55;;;;;;;4.60;96.01;101124.03;5078754;28;20052;-79
2022/04/04 07:58:34;;;;;;;42.42;8.65;;;;;;;4.68;95.96;101128.66;5078555;28;20147;-80
2022/04/04 08:01:04;;;;;;;17.85;7.38;;;;;;;4.71;95.93;101100.22;5078863;28;20045;-80
2022/04/04 08:03:32;;;;;;;15.88;8.07;;;;;;;4.74;96.28;101114.22;5078480;28;20142;-78
2022/04/04 08:06:01;;;;;;;18.30;8.55;;;;;;;4.73;96.67;101103.75;5078453;28;20048;-78
2022/04/04 08:08:33;;;;;;;18.55;8.63;;;;;;;4.73;95.84;101094.25;5077909;28;20052;-79
2022/04/04 08:11:03;;;;;;;19.10;8.27;;;;;;;4.73;96.79;101091.66;5078634;28;20072;-77
2022/04/04 08:13:33;;;;;;;23.88;9.27;;;;;;;4.80;97.22;101101.47;5078181;28;20048;-79
2022/04/04 08:16:02;;;;;;;23.50;9.05;;;;;;;4.79;96.80;101097.09;5061790;28;20136;-79
2022/04/04 08:18:34;;;;;;;25.73;9.55;;;;;;;4.76;96.33;101090.88;5079217;28;20048;-79
2022/04/04 08:21:02;;;;;;;23.33;9.52;;;;;;;4.77;96.98;101098.75;5079912;28;20079;-78
2022/04/04 08:23:31;;;;;;;18.73;9.13;;;;;;;4.81;97.04;101089.34;5080750;28;20049;-79
2022/04/04 08:26:00;;;;;;;17.70;7.70;;;;;;;4.85;96.68;101071.34;5079813;28;20075;-79
2022/04/04 08:28:29;;;;;;;24.20;9.10;;;;;;;4.86;96.72;101082.63;5079229;28;20044;-78
2022/04/04 08:30:59;;;;;;;21.48;8.15;;;;;;;4.86;97.38;101088.72;5078540;28;20483;-74
2022/04/04 08:33:30;;;;;;;19.30;8.45;;;;;;;4.90;96.89;101084.53;5074561;28;20080;-72
2022/04/04 08:36:00;;;;;;;22.25;8.25;;;;;;;4.91;96.74;101061.19;5074933;28;20135;-72
2022/04/04 08:38:29;;;;;;;21.27;9.63;;;;;;;4.98;97.12;101066.66;5075423;28;20056;-72
2022/04/04 08:41:05;;;;;;;13.00;7.00;;;;;;;5.01;97.31;101066.75;5075497;28;20044;-72
2022/04/04 08:43:38;;;;;;;19.35;7.93;;;;;;;5.00;97.36;101071.06;5075867;28;20075;-73
2022/04/04 08:46:08;;;;;;;20.77;9.15;;;;;;;5.00;97.83;101071.06;5075901;28;20456;-72
2022/04/04 08:48:39;;;;;;;20.80;8.45;;;;;;;5.00;97.04;101059.78;5076333;28;20057;-72
2022/04/04 08:51:08;;;;;;;14.70;6.00;;;;;;;5.09;97.57;101049.75;5075927;28;20049;-73
2022/04/04 08:53:39;;;;;;;21.20;7.50;;;;;;;5.12;97.42;101039.47;5077242;28;20060;-72
2022/04/04 08:56:09;;;;;;;17.33;6.88;;;;;;;5.12;97.43;101055.06;5076701;28;20040;-73
2022/04/04 08:58:39;;;;;;;17.70;7.85;;;;;;;5.12;97.95;101047.28;5060464;28;20131;-76
2022/04/04 09:01:08;;;;;;;22.20;8.63;;;;;;;5.15;98.06;101039.59;5080352;28;20093;-76
2022/04/04 09:03:40;;;;;;;22.75;7.80;;;;;;;5.15;98.99;101030.06;5079627;28;20153;-77
2022/04/04 09:06:08;;;;;;;18.98;7.55;;;;;;;5.16;99.55;101023.16;5080430;28;20056;-76
2022/04/04 09:08:56;;;;;;;28.92;9.02;;;;;;;5.24;99.38;101032.09;5077859;28;20074;-76
2022/04/04 09:11:25;;;;;;;17.95;6.55;;;;;;;5.21;99.44;101024.19;5076493;28;20464;-77
2022/04/04 09:14:04;;;;;;;18.73;7.70;;;;;;;5.24;99.45;101021.69;5076107;28;20119;-76
2022/04/04 09:16:33;;;;;;;16.77;7.45;;;;;;;5.26;99.46;101022.66;5075982;28;20036;-76
2022/04/04 09:19:01;;;;;;;15.23;7.80;;;;;;;5.31;99.55;101020.22;5075593;28;20492;-71
2022/04/04 09:21:33;;;;;;;12.38;5.55;;;;;;;5.35;99.11;101028.19;5075578;28;20379;-76
2022/04/04 09:24:09;;;;;;;17.50;5.97;;;;;;;5.33;98.77;101011.66;5077064;28;20404;-75
2022/04/04 09:26:40;;;;;;;16.23;7.00;;;;;;;5.31;99.31;101010.69;5076706;28;20049;-75
2022/04/04 09:29:14;;;;;;;14.02;5.55;;;;;;;5.35;99.59;101004.78;5076335;28;20048;-72
2022/04/04 09:31:57;;;;;;;13.80;6.25;;;;;;;5.39;99.18;100998.88;5076264;28;20041;-72
2022/04/04 09:34:27;;;;;;;13.65;5.88;;;;;;;5.42;99.47;100993.78;5074250;28;20055;-72
2022/04/04 09:36:57;;;;;;;19.75;6.07;;;;;;;5.41;99.14;100992.00;5074608;28;20053;-75
2022/04/04 09:39:25;;;;;;;15.98;5.60;;;;;;;5.44;99.38;100997.31;5074033;28;20052;-76
2022/04/04 09:41:54;;;;;;;18.23;5.60;;;;;;;5.43;99.24;100977.34;5074626;28;20053;-75
2022/04/04 09:44:25;;;;;;;10.05;4.60;;;;;;;5.49;99.23;100982.75;5073484;28;20123;-76
2022/04/04 09:46:58;;;;;;;13.02;4.85;;;;;;;5.45;99.32;100988.69;5074078;28;20123;-74
2022/04/04 09:49:26;;;;;;;13.57;4.68;;;;;;;5.45;99.21;100980.00;5073744;28;20110;-73
2022/04/04 09:51:57;;;;;;;13.35;4.97;;;;;;;5.49;100.00;100974.06;5073619;28;20136;-74
2022/04/04 09:54:29;;;;;;;13.70;5.00;;;;;;;5.52;100.00;100984.59;5073907;28;20076;-74
2022/04/04 09:57:10;;;;;;;18.45;4.85;;;;;;;5.53;100.00;100970.75;5074219;28;20049;-75
2022/04/04 09:59:40;;;;;;;8.68;4.43;;;;;;;5.54;100.00;100977.72;5074128;28;20056;-75
2022/04/04 10:02:13;;;;;;;12.23;4.82;;;;;;;5.55;100.00;100982.09;5073884;28;20508;-76
2022/04/04 10:04:44;;;;;;;16.13;5.22;;;;;;;5.55;100.00;100969.97;5073072;28;20047;-74
2022/04/04 10:07:20;;;;;;;11.88;5.15;;;;;;;5.57;100.00;100970.91;5073636;28;20433;-76
2022/04/04 10:09:52;;;;;;;15.13;4.70;;;;;;;5.67;100.00;100943.50;5073378;28;20053;-75
2022/04/04 10:12:22;;;;;;;15.52;4.13;;;;;;;5.64;100.00;100943.41;5073285;28;20517;-76
2022/04/04 10:15:00;;;;;;;15.60;4.45;;;;;;;5.68;100.00;100941.78;5073378;28;20045;-75
2022/04/04 10:17:31;;;;;;;22.30;5.07;;;;;;;5.75;100.00;100946.38;5073383;28;20044;-74
2022/04/04 10:20:00;;;;;;;13.25;4.88;;;;;;;5.77;100.00;100940.38;5073515;28;20105;-74
2022/04/04 10:22:28;;;;;;;13.93;4.88;;;;;;;5.85;100.00;100936.31;5073880;28;20139;-74
2022/04/04 10:25:02;;;;;;;16.42;4.60;;;;;;;5.87;100.00;100936.38;5073132;28;20135;-74
2022/04/04 10:27:34;;;;;;;10.95;4.07;;;;;;;5.92;100.00;100945.25;5073993;28;20048;-72
2022/04/04 10:30:08;;;;;;;10.15;4.07;;;;;;;6.01;100.00;100937.75;5072961;28;20044;-72
2022/04/04 10:32:51;;;;;;;14.90;5.47;;;;;;;5.95;100.00;100934.06;5073026;28;20504;-75
2022/04/04 10:35:25;;;;;;;12.35;4.97;;;;;;;5.96;100.00;100928.91;5072665;28;20044;-72
2022/04/04 10:37:57;;;;;;;16.10;5.57;;;;;;;5.97;100.00;100920.25;5073648;28;20076;-71
2022/04/04 10:40:27;;;;;;;14.20;5.45;;;;;;;5.99;100.00;100920.31;5072698;28;20048;-70
2022/04/04 10:43:08;;;;;;;13.93;4.65;;;;;;;6.07;100.00;100934.47;5072959;28;20080;-71
2022/04/04 10:45:57;;;;;;;11.35;4.63;;;;;;;6.08;100.00;100926.72;5072184;28;20037;-71
2022/04/04 10:48:31;;;;;;;13.60;5.03;;;;;;;6.11;100.00;100915.50;5072849;28;20052;-76
2022/04/04 10:51:11;;;;;;;9.98;4.10;;;;;;;6.17;100.00;100915.69;5072706;28;20120;-77
2022/04/04 10:53:44;;;;;;;14.38;4.40;;;;;;;6.20;100.00;100903.66;5072849;28;20052;-74
2022/04/04 10:56:21;;;;;;;9.60;4.18;;;;;;;6.29;100.00;100899.56;5073675;28;20041;-74
2022/04/04 10:58:54;;;;;;;19.42;4.78;;;;;;;6.31;100.00;100887.47;5077277;28;20053;-74
2022/04/04 11:01:24;;;;;;;10.27;3.47;;;;;;;6.30;100.00;100885.69;5077521;28;20088;-74
2022/04/04 11:04:01;;;;;;;10.70;3.80;;;;;;;6.33;100.00;100891.00;5077495;28;20155;-75
2022/04/04 11:09:47;;;;;;;12.15;3.67;;;;;;;6.39;100.00;100892.06;5077239;28;20044;-71
2022/04/04 11:12:23;;;;;;;11.50;4.57;;;;;;;6.40;100.00;100885.13;5077495;28;20044;-75
2022/04/04 11:14:58;;;;;;;;;;;;;;;6.40;100.00;100878.22;5077647;28;20040;-74
2022/04/04 11:17:33;;;;;;;10.80;3.40;;;;;;;6.45;100.00;100875.75;5077513;28;20344;-74
2022/04/04 11:20:10;;;;;;;9.00;3.40;;;;;;;6.46;100.00;100883.59;5076863;28;20459;-75
2022/04/04 11:22:45;;;;;;;11.43;3.60;;;;;;;6.47;100.00;100861.94;5077503;28;20048;-75
2022/04/04 11:25:20;;;;;;;9.55;3.45;;;;;;;6.44;100.00;100859.22;5077749;28;20495;-74
2022/04/04 11:27:54;;;;;;;8.93;3.28;;;;;;;6.54;100.00;100865.59;5078276;28;20124;-75
2022/04/04 11:30:24;;;;;;;9.32;2.85;;;;;;;6.55;100.00;100856.94;5078876;28;20049;-75
2022/04/04 11:32:54;;;;;;;7.38;2.50;;;;;;;6.57;100.00;100863.09;5078425;28;20140;-75
2022/04/04 11:35:27;;;;;;;8.73;2.63;;;;;;;6.62;100.00;100850.19;5077221;28;20056;-75
2022/04/04 11:37:58;;;;;;;6.90;2.63;;;;;;;6.66;100.00;100846.84;5075943;28;20457;-71
2022/04/04 11:40:33;;;;;;;7.68;2.70;;;;;;;6.74;100.00;100847.94;5075507;28;20272;-71
2022/04/04 11:43:06;;;;;;;9.65;2.80;;;;;;;6.77;100.00;100853.25;5075857;28;20055;-71
2022/04/04 11:45:39;;;;;;;6.80;2.45;;;;;;;6.72;100.00;100847.00;5075558;28;20123;-71
2022/04/04 11:48:14;;;;;;;7.47;2.72;;;;;;;6.80;100.00;100849.00;5075800;28;20052;-71